Time;durP1;ratioP1;P1;durP2;ratioP2;P2;SDS_P1;SDS_P2;PMS_P1;PMS_P2;Temp;Humidity;BMP_temperature;BMP_pressure;BME280_temperature;BME280_humidity;BME280_pressure;Samples;Min_cycle;Max_cycle;Signal;HPM_P1;HPM_P2
2023/06/13 00:02:13;;;;;;;;;;;;;;;;;;;;;
2023/06/13 00:04:43;;;;;;;;;25.33;24.00;;;;;;;;5043015;28;67559;-78
2023/06/13 00:07:09;;;;;;;;;24.33;20.33;;;;;;;;5035468;28;45864;-77
2023/06/13 00:09:35;;;;;;;;;22.67;21.00;;;;;;;;5038066;28;46264;-76
2023/06/13 00:12:00;;;;;;;;;20.33;15.67;;;;;;;;5044235;28;45459;-78
2023/06/13 00:14:26;;;;;;;;;23.33;22.00;;;;;;;;5038898;28;45269;-78
2023/06/13 00:16:52;;;;;;;;;20.33;19.00;;;;;;;;5034381;28;45658;-79
2023/06/13 00:19:18;;;;;;;;;23.33;23.33;;;;;;;;5035457;28;45421;-77
2023/06/13 00:21:45;;;;;;;;;26.67;22.33;;;;;;;;5049435;28;45355;-78
2023/06/13 00:24:10;;;;;;;;;26.00;20.00;;;;;;;;5035750;28;45707;-77
2023/06/13 00:26:36;;;;;;;;;25.67;25.33;;;;;;;;5036193;28;45455;-78
2023/06/13 00:29:01;;;;;;;;;23.33;19.00;;;;;;;;5033564;28;47908;-77
2023/06/13 00:31:28;;;;;;;;;21.33;19.33;;;;;;;;5033737;28;45425;-76
2023/06/13 00:33:54;;;;;;;;;25.33;22.67;;;;;;;;5022662;28;45494;-78
2023/06/13 00:36:20;;;;;;;;;24.67;21.67;;;;;;;;5036484;28;47227;-78
2023/06/13 00:38:47;;;;;;;;;27.67;22.67;;;;;;;;5036021;28;46552;-76
2023/06/13 00:41:13;;;;;;;;;33.33;29.33;;;;;;;;5034185;28;45636;-78
2023/06/13 00:43:38;;;;;;;;;28.00;23.67;;;;;;;;5030119;28;45535;-76
2023/06/13 00:46:03;;;;;;;;;24.00;21.00;;;;;;;;5042462;28;45347;-78
2023/06/13 00:48:29;;;;;;;;;28.33;23.33;;;;;;;;5038217;28;47023;-76
2023/06/13 00:50:54;;;;;;;;;29.00;26.33;;;;;;;;5037581;28;45708;-76
2023/06/13 00:53:21;;;;;;;;;26.00;24.33;;;;;;;;5037537;28;45646;-76
2023/06/13 00:55:47;;;;;;;;;37.67;33.67;;;;;;;;5037799;28;45405;-76
2023/06/13 00:58:13;;;;;;;;;41.33;33.00;;;;;;;;5037587;28;46436;-77
2023/06/13 01:00:39;;;;;;;;;50.33;39.00;;;;;;;;5039278;28;45386;-75
2023/06/13 01:03:07;;;;;;;;;41.33;33.67;;;;;;;;5042255;28;45592;-76
2023/06/13 01:05:33;;;;;;;;;27.00;23.00;;;;;;;;5030635;28;45727;-76
2023/06/13 01:07:59;;;;;;;;;39.00;32.00;;;;;;;;5030574;28;45866;-76
2023/06/13 01:10:27;;;;;;;;;30.00;30.00;;;;;;;;5034211;28;45497;-75
2023/06/13 01:13:11;;;;;;;;;32.67;28.67;;;;;;;;5035657;28;46947;-77
2023/06/13 01:15:55;;;;;;;;;31.00;27.33;;;;;;;;5035312;28;45531;-76
2023/06/13 01:18:24;;;;;;;;;42.67;35.33;;;;;;;;5033586;28;45338;-76
2023/06/13 01:20:56;;;;;;;;;43.00;35.33;;;;;;;;5031217;28;45591;-76
2023/06/13 01:23:28;;;;;;;;;49.67;38.33;;;;;;;;5039008;28;45368;-77
2023/06/13 01:26:03;;;;;;;;;28.67;27.33;;;;;;;;5031926;28;45473;-76
2023/06/13 01:28:32;;;;;;;;;30.33;26.67;;;;;;;;5038371;28;46528;-76
2023/06/13 01:30:57;;;;;;;;;30.33;28.33;;;;;;;;5036416;28;45420;-77
2023/06/13 01:33:23;;;;;;;;;30.00;24.33;;;;;;;;5036454;28;45817;-76
2023/06/13 01:35:49;;;;;;;;;38.00;31.00;;;;;;;;5048438;28;45443;-74
2023/06/13 01:38:15;;;;;;;;;28.00;25.00;;;;;;;;5040380;28;45722;-76
2023/06/13 01:40:40;;;;;;;;;44.33;37.33;;;;;;;;5030877;28;45402;-75
2023/06/13 01:43:05;;;;;;;;;30.00;28.00;;;;;;;;5034440;28;45893;-76
2023/06/13 01:45:31;;;;;;;;;31.00;27.00;;;;;;;;5037283;28;45454;-75
2023/06/13 01:48:02;;;;;;;;;34.00;29.67;;;;;;;;5041048;28;45508;-78
2023/06/13 01:50:33;;;;;;;;;25.00;23.67;;;;;;;;5043682;28;45595;-75
2023/06/13 01:53:04;;;;;;;;;27.00;27.00;;;;;;;;5034035;28;45527;-78
2023/06/13 01:55:32;;;;;;;;;22.00;22.00;;;;;;;;5031188;28;45432;-77
2023/06/13 01:58:02;;;;;;;;;32.00;25.67;;;;;;;;5037856;28;45297;-76
2023/06/13 02:00:28;;;;;;;;;29.00;27.67;;;;;;;;5033183;28;45578;-77
2023/06/13 02:02:53;;;;;;;;;35.00;29.67;;;;;;;;5037601;28;45556;-76
2023/06/13 02:05:19;;;;;;;;;43.00;37.33;;;;;;;;5037552;28;45531;-78
2023/06/13 02:07:44;;;;;;;;;33.00;30.67;;;;;;;;5036681;28;47298;-78
2023/06/13 02:10:10;;;;;;;;;38.00;31.67;;;;;;;;5036272;28;45810;-76
2023/06/13 02:12:35;;;;;;;;;30.33;25.33;;;;;;;;5025718;28;45468;-74
2023/06/13 02:15:02;;;;;;;;;37.00;31.67;;;;;;;;5032618;28;45577;-76
2023/06/13 02:17:27;;;;;;;;;38.00;34.00;;;;;;;;5029642;28;46171;-75
2023/06/13 02:19:53;;;;;;;;;36.33;33.00;;;;;;;;5035516;28;45709;-76
2023/06/13 02:22:18;;;;;;;;;28.00;26.00;;;;;;;;5021234;28;45930;-76
2023/06/13 02:24:43;;;;;;;;;33.33;32.00;;;;;;;;5050644;28;45658;-76
2023/06/13 02:27:08;;;;;;;;;30.33;29.33;;;;;;;;5044510;28;46098;-76
2023/06/13 02:29:36;;;;;;;;;31.67;30.00;;;;;;;;5042340;28;45510;-75
2023/06/13 02:32:02;;;;;;;;;33.67;29.33;;;;;;;;5036935;28;45379;-77
2023/06/13 02:34:27;;;;;;;;;31.67;27.33;;;;;;;;5033695;28;45691;-75
2023/06/13 02:36:52;;;;;;;;;27.33;26.00;;;;;;;;5040032;28;45824;-77
2023/06/13 02:39:17;;;;;;;;;29.67;26.00;;;;;;;;5030009;28;45335;-75
2023/06/13 02:41:43;;;;;;;;;38.00;32.00;;;;;;;;5031785;28;45484;-77
2023/06/13 02:44:08;;;;;;;;;32.67;30.00;;;;;;;;5040650;28;45516;-79
2023/06/13 02:46:33;;;;;;;;;36.67;31.33;;;;;;;;5036226;28;45416;-76
2023/06/13 02:48:59;;;;;;;;;35.00;31.67;;;;;;;;5039098;28;45385;-77
2023/06/13 02:51:24;;;;;;;;;25.67;24.67;;;;;;;;5025865;28;45520;-77
2023/06/13 02:53:49;;;;;;;;;31.33;29.00;;;;;;;;5031683;28;45524;-76
2023/06/13 02:56:15;;;;;;;;;22.00;20.67;;;;;;;;5037160;28;46493;-77
2023/06/13 02:58:40;;;;;;;;;32.00;28.00;;;;;;;;5047020;28;45710;-78
2023/06/13 03:01:06;;;;;;;;;26.33;23.33;;;;;;;;5024754;28;46112;-76
2023/06/13 03:03:32;;;;;;;;;29.67;27.00;;;;;;;;5026987;28;47174;-75
2023/06/13 03:05:59;;;;;;;;;27.67;25.33;;;;;;;;5022580;28;45678;-76
2023/06/13 03:08:25;;;;;;;;;39.67;27.00;;;;;;;;5024580;28;45364;-75
2023/06/13 03:10:50;;;;;;;;;31.67;28.33;;;;;;;;5031735;28;45442;-75
2023/06/13 03:13:18;;;;;;;;;26.00;24.67;;;;;;;;5035023;28;45758;-78
2023/06/13 03:15:45;;;;;;;;;30.33;28.33;;;;;;;;5034293;28;46004;-78
2023/06/13 03:18:11;;;;;;;;;33.00;30.00;;;;;;;;5035099;28;45574;-76
2023/06/13 03:20:37;;;;;;;;;34.67;28.00;;;;;;;;5033698;28;45491;-77
2023/06/13 03:23:02;;;;;;;;;28.67;27.33;;;;;;;;5032611;28;46096;-75
2023/06/13 03:25:27;;;;;;;;;32.33;30.00;;;;;;;;5029298;28;46987;-76
2023/06/13 03:27:52;;;;;;;;;33.33;31.00;;;;;;;;5034893;28;45409;-76
2023/06/13 03:30:18;;;;;;;;;26.00;24.33;;;;;;;;5031912;28;45707;-78
2023/06/13 03:32:43;;;;;;;;;28.00;26.00;;;;;;;;5027650;28;45717;-75
2023/06/13 03:35:09;;;;;;;;;32.00;28.33;;;;;;;;5033170;28;45443;-77
2023/06/13 03:37:34;;;;;;;;;29.00;26.00;;;;;;;;5028380;28;45581;-75
2023/06/13 03:39:59;;;;;;;;;34.33;25.33;;;;;;;;5035269;28;45614;-75
2023/06/13 03:42:24;;;;;;;;;26.67;26.00;;;;;;;;5035144;28;45490;-76
2023/06/13 03:44:49;;;;;;;;;28.67;24.33;;;;;;;;5033835;28;47973;-75
2023/06/13 03:47:15;;;;;;;;;43.33;31.00;;;;;;;;5036130;28;45358;-76
2023/06/13 03:49:41;;;;;;;;;29.67;27.33;;;;;;;;5035487;28;45437;-75
2023/06/13 03:52:06;;;;;;;;;27.67;27.33;;;;;;;;5035748;28;45623;-75
2023/06/13 03:54:31;;;;;;;;;32.00;27.67;;;;;;;;5035439;28;45385;-75
2023/06/13 03:56:57;;;;;;;;;35.00;32.67;;;;;;;;5028364;28;45445;-76
2023/06/13 03:59:22;;;;;;;;;28.67;27.33;;;;;;;;5023600;28;45348;-76
2023/06/13 04:01:47;;;;;;;;;32.67;27.33;;;;;;;;5033137;28;45757;-76
2023/06/13 04:04:13;;;;;;;;;28.33;26.00;;;;;;;;5035264;28;46028;-76
2023/06/13 04:06:38;;;;;;;;;31.00;27.33;;;;;;;;5029558;28;45520;-74
2023/06/13 04:09:06;;;;;;;;;31.00;25.67;;;;;;;;5033140;28;45415;-74
2023/06/13 04:11:33;;;;;;;;;29.67;28.67;;;;;;;;5034146;28;45857;-77
2023/06/13 04:13:59;;;;;;;;;28.67;28.33;;;;;;;;5034013;28;46980;-76
2023/06/13 04:16:24;;;;;;;;;28.67;23.67;;;;;;;;5036532;28;45421;-75
2023/06/13 04:18:49;;;;;;;;;23.33;23.33;;;;;;;;5038747;28;45398;-76
2023/06/13 04:21:15;;;;;;;;;33.00;29.00;;;;;;;;5028924;28;45494;-76
2023/06/13 04:23:41;;;;;;;;;30.67;27.33;;;;;;;;5034989;28;46775;-76
2023/06/13 04:26:07;;;;;;;;;27.00;24.67;;;;;;;;5035520;28;45384;-77
2023/06/13 04:28:33;;;;;;;;;28.67;26.67;;;;;;;;5031544;28;45541;-75
2023/06/13 04:31:00;;;;;;;;;26.33;25.67;;;;;;;;5026504;28;45422;-75
2023/06/13 04:33:25;;;;;;;;;28.00;24.33;;;;;;;;5033185;28;46459;-76
2023/06/13 04:35:50;;;;;;;;;30.67;28.00;;;;;;;;5028183;28;45933;-75
2023/06/13 04:38:18;;;;;;;;;26.67;26.33;;;;;;;;5026102;28;45714;-76
2023/06/13 04:40:43;;;;;;;;;41.67;35.67;;;;;;;;5034894;28;45765;-77
2023/06/13 04:43:09;;;;;;;;;60.67;44.33;;;;;;;;5038461;28;45718;-74
2023/06/13 04:45:35;;;;;;;;;31.00;30.00;;;;;;;;5041664;28;45791;-76
2023/06/13 04:48:03;;;;;;;;;32.67;31.33;;;;;;;;5035339;28;45758;-75
2023/06/13 04:50:28;;;;;;;;;31.67;29.33;;;;;;;;5038524;28;45581;-77
2023/06/13 04:52:54;;;;;;;;;27.33;26.00;;;;;;;;5029644;28;45680;-75
2023/06/13 04:55:22;;;;;;;;;26.00;21.67;;;;;;;;5028649;28;45406;-76
2023/06/13 04:57:48;;;;;;;;;24.33;18.67;;;;;;;;5037781;28;45447;-77
2023/06/13 05:00:15;;;;;;;;;30.00;22.00;;;;;;;;5036213;28;45458;-77
2023/06/13 05:02:41;;;;;;;;;25.67;21.67;;;;;;;;5032385;28;46874;-77
2023/06/13 05:05:07;;;;;;;;;22.33;20.67;;;;;;;;5037756;28;45367;-76
2023/06/13 05:07:32;;;;;;;;;25.00;23.00;;;;;;;;5037956;28;45566;-77
2023/06/13 05:09:57;;;;;;;;;28.33;25.67;;;;;;;;5036496;28;45562;-78
2023/06/13 05:12:23;;;;;;;;;33.00;27.33;;;;;;;;5024100;28;47329;-77
2023/06/13 05:14:48;;;;;;;;;25.67;22.67;;;;;;;;5030054;28;45300;-77
2023/06/13 05:17:14;;;;;;;;;28.00;25.33;;;;;;;;5035550;28;45786;-77
2023/06/13 05:19:40;;;;;;;;;31.33;24.00;;;;;;;;5040451;28;45399;-78
2023/06/13 05:22:05;;;;;;;;;26.67;24.00;;;;;;;;5036402;28;45878;-77
2023/06/13 05:24:31;;;;;;;;;26.33;25.67;;;;;;;;5038908;28;45423;-76
2023/06/13 05:26:56;;;;;;;;;27.00;26.00;;;;;;;;5037101;28;45438;-78
2023/06/13 05:29:22;;;;;;;;;26.33;23.67;;;;;;;;5030999;28;45408;-77
2023/06/13 05:31:47;;;;;;;;;29.67;26.00;;;;;;;;5031518;28;45591;-76
2023/06/13 05:34:12;;;;;;;;;28.67;25.67;;;;;;;;5028472;28;45604;-80
2023/06/13 05:36:38;;;;;;;;;23.00;22.67;;;;;;;;5032564;28;45443;-77
2023/06/13 05:39:03;;;;;;;;;21.67;21.67;;;;;;;;5029136;28;45656;-70
2023/06/13 05:41:28;;;;;;;;;30.00;27.00;;;;;;;;5033231;28;45684;-66
2023/06/13 05:43:53;;;;;;;;;23.67;23.67;;;;;;;;5029849;28;45411;-70
2023/06/13 05:46:19;;;;;;;;;27.00;21.33;;;;;;;;5030109;28;45735;-68
2023/06/13 05:48:44;;;;;;;;;23.67;21.00;;;;;;;;5025180;28;46018;-67
2023/06/13 05:51:09;;;;;;;;;21.00;19.67;;;;;;;;5029380;28;45894;-66
2023/06/13 05:53:35;;;;;;;;;17.00;17.00;;;;;;;;5035626;28;45510;-66
2023/06/13 05:56:00;;;;;;;;;20.67;19.33;;;;;;;;5036466;28;45487;-67
2023/06/13 05:58:25;;;;;;;;;23.33;20.67;;;;;;;;5048993;28;45699;-70
2023/06/13 06:00:52;;;;;;;;;14.75;12.50;;;;;;;;5035262;28;46809;-68
2023/06/13 06:03:17;;;;;;;;;15.00;15.00;;;;;;;;5033711;28;45686;-67
2023/06/13 06:05:42;;;;;;;;;18.00;18.00;;;;;;;;5031865;28;45398;-66
2023/06/13 06:08:07;;;;;;;;;17.33;16.00;;;;;;;;5036018;28;46230;-67
2023/06/13 06:10:33;;;;;;;;;17.75;16.25;;;;;;;;5055895;28;46300;-68
2023/06/13 06:12:58;;;;;;;;;21.00;20.50;;;;;;;;5051419;28;45645;-69
2023/06/13 06:15:23;;;;;;;;;20.33;19.67;;;;;;;;5040031;28;45655;-66
2023/06/13 06:17:50;;;;;;;;;22.67;22.33;;;;;;;;5035598;28;46235;-65
2023/06/13 06:20:16;;;;;;;;;25.33;22.00;;;;;;;;5036374;28;46766;-64
2023/06/13 06:22:41;;;;;;;;;22.67;21.33;;;;;;;;5035546;28;45764;-65
2023/06/13 06:25:08;;;;;;;;;23.33;21.00;;;;;;;;5038882;28;45679;-65
2023/06/13 06:27:34;;;;;;;;;22.33;21.33;;;;;;;;5043469;28;45345;-64
2023/06/13 06:29:59;;;;;;;;;23.33;19.00;;;;;;;;5034270;28;46018;-64
2023/06/13 06:32:24;;;;;;;;;20.33;19.33;;;;;;;;5034752;28;45479;-65
2023/06/13 06:34:49;;;;;;;;;20.33;20.00;;;;;;;;5038472;28;45456;-64
2023/06/13 06:37:15;;;;;;;;;28.67;25.67;;;;;;;;5035002;28;45722;-64
2023/06/13 06:39:41;;;;;;;;;21.00;19.67;;;;;;;;5035236;28;45424;-64
2023/06/13 06:42:06;;;;;;;;;25.00;18.67;;;;;;;;5037107;28;45403;-66
2023/06/13 06:44:31;;;;;;;;;22.33;19.00;;;;;;;;5035499;28;45600;-66
2023/06/13 06:46:56;;;;;;;;;20.67;20.67;;;;;;;;5034853;28;45756;-66
2023/06/13 06:49:22;;;;;;;;;18.33;16.33;;;;;;;;5035180;28;45683;-66
2023/06/13 06:51:47;;;;;;;;;23.33;22.33;;;;;;;;5032731;28;45442;-66
2023/06/13 06:54:12;;;;;;;;;19.33;17.00;;;;;;;;5035156;28;45350;-64
2023/06/13 06:56:38;;;;;;;;;16.00;15.33;;;;;;;;5044112;28;46141;-66
2023/06/13 06:59:03;;;;;;;;;14.75;14.25;;;;;;;;5035023;28;45769;-67
2023/06/13 07:01:28;;;;;;;;;15.00;14.00;;;;;;;;5034663;28;45462;-65
2023/06/13 07:03:53;;;;;;;;;15.00;15.00;;;;;;;;5034628;28;45725;-66
2023/06/13 07:06:19;;;;;;;;;17.00;16.00;;;;;;;;5032194;28;45531;-66
2023/06/13 07:08:44;;;;;;;;;7.50;7.50;;;;;;;;5033349;28;45680;-66
2023/06/13 07:11:10;;;;;;;;;16.33;15.33;;;;;;;;5034870;28;45315;-66
2023/06/13 07:13:35;;;;;;;;;17.33;14.33;;;;;;;;5034730;28;45380;-67
2023/06/13 07:16:01;;;;;;;;;14.67;14.33;;;;;;;;5036044;28;45637;-65
2023/06/13 07:18:26;;;;;;;;;13.00;13.00;;;;;;;;5046030;28;46058;-64
2023/06/13 07:20:51;;;;;;;;;19.00;16.67;;;;;;;;5034730;28;45431;-65
2023/06/13 07:23:17;;;;;;;;;16.00;16.00;;;;;;;;5033977;28;45756;-66
2023/06/13 07:25:42;;;;;;;;;18.00;15.33;;;;;;;;5033082;28;45617;-67
2023/06/13 07:28:08;;;;;;;;;13.33;12.33;;;;;;;;5032262;28;45952;-68
2023/06/13 07:30:33;;;;;;;;;16.33;14.33;;;;;;;;5037379;28;46565;-70
2023/06/13 07:32:58;;;;;;;;;19.00;17.00;;;;;;;;5031965;28;45667;-66
2023/06/13 07:35:23;;;;;;;;;15.00;15.00;;;;;;;;5043233;28;45370;-65
2023/06/13 07:37:55;;;;;;;;;18.67;17.67;;;;;;;;5032027;28;45624;-64
2023/06/13 07:40:21;;;;;;;;;14.33;13.00;;;;;;;;5024084;28;45814;-66
2023/06/13 07:42:46;;;;;;;;;14.75;12.50;;;;;;;;5037049;28;45510;-64
2023/06/13 07:45:12;;;;;;;;;11.75;11.50;;;;;;;;5034663;28;45693;-62
2023/06/13 07:47:38;;;;;;;;;14.50;12.50;;;;;;;;5034719;28;46371;-64
2023/06/13 07:50:03;;;;;;;;;13.50;13.50;;;;;;;;5043172;28;45359;-63
2023/06/13 07:52:28;;;;;;;;;16.25;14.00;;;;;;;;5037041;28;45648;-64
2023/06/13 07:54:53;;;;;;;;;15.25;13.75;;;;;;;;5037963;28;45450;-63
2023/06/13 07:57:19;;;;;;;;;13.50;12.25;;;;;;;;5029775;28;45548;-63
2023/06/13 07:59:44;;;;;;;;;13.50;13.50;;;;;;;;5037406;28;46216;-64
2023/06/13 08:02:09;;;;;;;;;11.00;10.25;;;;;;;;5037157;28;45636;-63
2023/06/13 08:04:34;;;;;;;;;15.25;13.75;;;;;;;;5037594;28;45499;-64
2023/06/13 08:07:00;;;;;;;;;14.00;14.00;;;;;;;;5038069;28;45341;-65
2023/06/13 08:09:25;;;;;;;;;12.25;12.25;;;;;;;;5038209;28;45372;-63
2023/06/13 08:11:50;;;;;;;;;15.00;15.00;;;;;;;;5038363;28;45491;-64
2023/06/13 08:14:15;;;;;;;;;14.00;13.00;;;;;;;;5037524;28;45306;-66
2023/06/13 08:16:41;;;;;;;;;14.67;14.33;;;;;;;;5037934;28;45671;-64
2023/06/13 08:19:06;;;;;;;;;14.33;14.33;;;;;;;;5037521;28;45303;-63
2023/06/13 08:21:31;;;;;;;;;15.33;13.00;;;;;;;;5018538;28;45447;-62
2023/06/13 08:23:59;;;;;;;;;13.67;13.00;;;;;;;;5029605;28;45387;-63
2023/06/13 08:26:25;;;;;;;;;13.33;12.33;;;;;;;;5035336;28;47146;-64
2023/06/13 08:28:50;;;;;;;;;15.00;15.00;;;;;;;;5036728;28;45421;-65
2023/06/13 08:31:17;;;;;;;;;12.33;11.00;;;;;;;;5040142;28;45495;-64
2023/06/13 08:33:42;;;;;;;;;14.00;13.00;;;;;;;;5037678;28;45540;-63
2023/06/13 08:36:07;;;;;;;;;12.33;11.33;;;;;;;;5046397;28;46431;-65
2023/06/13 08:38:32;;;;;;;;;14.00;13.33;;;;;;;;5036236;28;45360;-64
2023/06/13 08:40:59;;;;;;;;;13.00;13.00;;;;;;;;5029914;28;45350;-63
2023/06/13 08:43:24;;;;;;;;;13.67;12.67;;;;;;;;5030506;28;46288;-65
2023/06/13 08:45:50;;;;;;;;;12.33;11.33;;;;;;;;5037015;28;46199;-66
2023/06/13 08:48:15;;;;;;;;;14.33;14.33;;;;;;;;5036062;28;45906;-65
2023/06/13 08:50:42;;;;;;;;;12.33;11.00;;;;;;;;5036634;28;45515;-65
2023/06/13 08:53:08;;;;;;;;;16.00;11.67;;;;;;;;5037061;28;46590;-65
2023/06/13 08:55:36;;;;;;;;;14.33;13.33;;;;;;;;5037036;28;45302;-65
2023/06/13 08:58:02;;;;;;;;;16.00;14.33;;;;;;;;5031468;28;45428;-65
2023/06/13 09:00:33;;;;;;;;;12.67;12.33;;;;;;;;5036515;28;45402;-66
2023/06/13 09:02:58;;;;;;;;;14.33;13.00;;;;;;;;5037063;28;45448;-65
2023/06/13 09:05:24;;;;;;;;;11.00;11.00;;;;;;;;5036894;28;46486;-65
2023/06/13 09:07:50;;;;;;;;;17.00;15.00;;;;;;;;5030193;28;47430;-66
2023/06/13 09:10:16;;;;;;;;;11.00;11.00;;;;;;;;5036671;28;45335;-66
2023/06/13 09:12:42;;;;;;;;;14.00;12.33;;;;;;;;5036614;28;45593;-68
2023/06/13 09:15:08;;;;;;;;;14.00;11.00;;;;;;;;5036795;28;45656;-65
2023/06/13 09:17:33;;;;;;;;;12.67;12.67;;;;;;;;5049824;28;45778;-66
2023/06/13 09:19:59;;;;;;;;;14.67;13.67;;;;;;;;5036877;28;45904;-64
2023/06/13 09:22:26;;;;;;;;;13.67;12.67;;;;;;;;5036206;28;45610;-66
2023/06/13 09:24:51;;;;;;;;;13.67;12.33;;;;;;;;5035681;28;46087;-65
2023/06/13 09:27:17;;;;;;;;;13.67;11.33;;;;;;;;5035477;28;45282;-67
2023/06/13 09:29:42;;;;;;;;;13.33;12.00;;;;;;;;5036861;28;45402;-65
2023/06/13 09:32:09;;;;;;;;;13.33;13.33;;;;;;;;5039934;28;45437;-67
2023/06/13 09:34:37;;;;;;;;;11.33;11.33;;;;;;;;5040059;28;45578;-64
2023/06/13 09:37:02;;;;;;;;;13.33;13.00;;;;;;;;5040770;28;45409;-66
2023/06/13 09:39:31;;;;;;;;;15.00;15.00;;;;;;;;5035803;28;45924;-67
2023/06/13 09:41:56;;;;;;;;;14.33;14.33;;;;;;;;5029780;28;45830;-67
2023/06/13 09:44:23;;;;;;;;;14.67;14.00;;;;;;;;5036148;28;45358;-67
2023/06/13 09:46:52;;;;;;;;;16.33;15.67;;;;;;;;5030944;28;45384;-67
2023/06/13 09:49:18;;;;;;;;;16.33;15.33;;;;;;;;5036734;28;45360;-69
2023/06/13 09:51:44;;;;;;;;;14.00;13.00;;;;;;;;5036409;28;45387;-67
2023/06/13 09:54:09;;;;;;;;;14.33;14.33;;;;;;;;5034843;28;47074;-66
2023/06/13 09:56:35;;;;;;;;;14.00;14.00;;;;;;;;5035672;28;45511;-67
2023/06/13 09:59:01;;;;;;;;;15.00;14.33;;;;;;;;5035855;28;45700;-68
2023/06/13 10:01:28;;;;;;;;;14.33;12.67;;;;;;;;5036215;28;45471;-67
2023/06/13 10:03:54;;;;;;;;;12.33;12.00;;;;;;;;5046196;28;47231;-65
2023/06/13 10:06:19;;;;;;;;;16.00;15.33;;;;;;;;5034194;28;45405;-68
2023/06/13 10:08:44;;;;;;;;;16.00;15.00;;;;;;;;5035146;28;45370;-69
2023/06/13 10:11:14;;;;;;;;;14.67;12.00;;;;;;;;5034142;28;47040;-69
2023/06/13 10:13:53;;;;;;;;;14.33;14.33;;;;;;;;5027771;27;47295;-66
2023/06/13 10:16:20;;;;;;;;;13.00;11.67;;;;;;;;5034149;28;45730;-66
2023/06/13 10:18:47;;;;;;;;;11.00;11.00;;;;;;;;5033542;28;45732;-67
2023/06/13 10:21:13;;;;;;;;;13.67;13.33;;;;;;;;5031033;28;45982;-66
2023/06/13 10:23:44;;;;;;;;;12.25;12.25;;;;;;;;5022387;28;46183;-70
2023/06/13 10:26:15;;;;;;;;;12.00;12.00;;;;;;;;5025014;28;45408;-68
2023/06/13 10:28:59;;;;;;;;;12.67;12.00;;;;;;;;5034783;28;45760;-68
2023/06/13 10:31:44;;;;;;;;;16.67;14.67;;;;;;;;5031957;28;45412;-68
2023/06/13 10:34:09;;;;;;;;;12.33;12.33;;;;;;;;5021936;28;45525;-66
2023/06/13 10:36:53;;;;;;;;;14.00;13.67;;;;;;;;5026464;28;45822;-69
2023/06/13 10:39:37;;;;;;;;;14.67;13.67;;;;;;;;5022335;28;45516;-67
2023/06/13 10:42:16;;;;;;;;;11.67;11.67;;;;;;;;5025947;28;45755;-66
2023/06/13 10:44:42;;;;;;;;;15.67;14.33;;;;;;;;5030905;28;45736;-67
2023/06/13 10:47:07;;;;;;;;;14.00;12.33;;;;;;;;5031425;28;45413;-69
2023/06/13 10:49:37;;;;;;;;;13.33;11.33;;;;;;;;5042471;28;45447;-66
2023/06/13 10:52:02;;;;;;;;;11.50;11.50;;;;;;;;5032650;28;46108;-67
2023/06/13 10:54:28;;;;;;;;;14.00;14.00;;;;;;;;5034258;28;46497;-66
2023/06/13 10:56:58;;;;;;;;;14.00;13.00;;;;;;;;5032134;28;45723;-64
2023/06/13 10:59:23;;;;;;;;;13.00;13.00;;;;;;;;5032086;28;45550;-67
2023/06/13 11:01:50;;;;;;;;;13.00;13.00;;;;;;;;5029876;28;45576;-65
2023/06/13 11:04:17;;;;;;;;;14.33;12.67;;;;;;;;5032672;28;45783;-66
2023/06/13 11:06:46;;;;;;;;;16.67;15.00;;;;;;;;5031385;28;45776;-65
2023/06/13 11:09:16;;;;;;;;;17.00;13.33;;;;;;;;5033396;28;45827;-64
2023/06/13 11:11:44;;;;;;;;;16.33;13.00;;;;;;;;5031031;28;45806;-68
2023/06/13 11:14:10;;;;;;;;;13.00;12.67;;;;;;;;5028926;28;46281;-69
2023/06/13 11:16:36;;;;;;;;;11.75;11.75;;;;;;;;5034269;28;45377;-73
2023/06/13 11:19:04;;;;;;;;;14.00;14.00;;;;;;;;5029175;28;46048;-68
2023/06/13 11:21:30;;;;;;;;;13.00;12.00;;;;;;;;5023736;28;45536;-69
2023/06/13 11:23:56;;;;;;;;;8.33;8.00;;;;;;;;5022962;28;47532;-69
2023/06/13 11:26:21;;;;;;;;;16.33;16.33;;;;;;;;5026405;28;45839;-68
2023/06/13 11:28:48;;;;;;;;;14.67;13.33;;;;;;;;5035446;28;45699;-66
2023/06/13 11:31:15;;;;;;;;;11.33;11.00;;;;;;;;5035069;28;45413;-67
2023/06/13 11:33:43;;;;;;;;;13.25;13.00;;;;;;;;5033230;28;47116;-68
2023/06/13 11:36:09;;;;;;;;;13.67;13.33;;;;;;;;5039536;28;45492;-69
2023/06/13 11:38:40;;;;;;;;;14.67;14.67;;;;;;;;5033974;28;46157;-70
2023/06/13 11:41:06;;;;;;;;;11.67;11.67;;;;;;;;5033769;28;45900;-69
2023/06/13 11:43:31;;;;;;;;;14.00;13.00;;;;;;;;5033887;28;45774;-68
2023/06/13 11:45:57;;;;;;;;;15.67;14.00;;;;;;;;5033421;28;45538;-69
2023/06/13 11:48:26;;;;;;;;;13.33;13.33;;;;;;;;5025284;28;45679;-70
2023/06/13 11:50:51;;;;;;;;;19.00;14.33;;;;;;;;5024821;28;45828;-71
2023/06/13 11:53:18;;;;;;;;;15.67;12.67;;;;;;;;5020992;28;45773;-68
2023/06/13 11:55:44;;;;;;;;;13.00;12.00;;;;;;;;5017471;28;45382;-69
2023/06/13 11:58:10;;;;;;;;;15.67;13.67;;;;;;;;5022546;28;45563;-69
2023/06/13 12:00:54;;;;;;;;;12.33;10.33;;;;;;;;5029401;28;46024;-67
2023/06/13 12:03:21;;;;;;;;;7.67;6.33;;;;;;;;5021891;28;46350;-69
2023/06/13 12:05:46;;;;;;;;;16.50;14.25;;;;;;;;5020961;28;45489;-67
2023/06/13 12:08:12;;;;;;;;;20.00;15.75;;;;;;;;5028702;28;45552;-68
2023/06/13 12:10:37;;;;;;;;;13.00;12.00;;;;;;;;5036082;28;45419;-68
2023/06/13 12:13:02;;;;;;;;;12.00;11.00;;;;;;;;5032576;28;46074;-68
2023/06/13 12:15:28;;;;;;;;;9.33;9.33;;;;;;;;5028059;28;45730;-70
2023/06/13 12:17:55;;;;;;;;;11.50;11.50;;;;;;;;5032840;28;45527;-69
2023/06/13 12:20:24;;;;;;;;;15.00;13.67;;;;;;;;5034189;28;45495;-68
2023/06/13 12:22:54;;;;;;;;;15.00;14.00;;;;;;;;5033942;28;45835;-68
2023/06/13 12:25:19;;;;;;;;;15.67;14.00;;;;;;;;5029356;28;46130;-68
2023/06/13 12:27:44;;;;;;;;;11.33;11.00;;;;;;;;5031202;28;45413;-67
2023/06/13 12:30:11;;;;;;;;;13.33;12.00;;;;;;;;5033556;28;45499;-68
2023/06/13 12:32:38;;;;;;;;;16.00;14.00;;;;;;;;5026286;28;45484;-67
2023/06/13 12:35:03;;;;;;;;;14.67;12.67;;;;;;;;5037978;28;45995;-67
2023/06/13 12:37:34;;;;;;;;;12.33;12.33;;;;;;;;5034713;28;45357;-68
2023/06/13 12:40:07;;;;;;;;;17.50;12.75;;;;;;;;5037629;28;45727;-69
2023/06/13 12:42:34;;;;;;;;;14.00;13.00;;;;;;;;5036666;28;46587;-67
2023/06/13 12:44:59;;;;;;;;;14.00;13.00;;;;;;;;5036681;28;45423;-68
2023/06/13 12:47:24;;;;;;;;;14.33;9.33;;;;;;;;5037753;28;45326;-69
2023/06/13 12:49:50;;;;;;;;;13.00;11.33;;;;;;;;5034915;28;45245;-68
2023/06/13 12:52:15;;;;;;;;;15.00;14.33;;;;;;;;5034413;28;45642;-69
2023/06/13 12:54:42;;;;;;;;;15.67;13.00;;;;;;;;5026723;28;45222;-68
2023/06/13 12:57:10;;;;;;;;;12.00;12.00;;;;;;;;5025044;28;45688;-68
2023/06/13 12:59:36;;;;;;;;;17.33;14.67;;;;;;;;5022266;28;45594;-68
2023/06/13 13:02:03;;;;;;;;;12.67;12.67;;;;;;;;5030707;28;45724;-68
2023/06/13 13:04:29;;;;;;;;;12.67;12.67;;;;;;;;5035769;28;45767;-67
2023/06/13 13:06:56;;;;;;;;;13.00;13.00;;;;;;;;5035911;28;45699;-69
2023/06/13 13:09:22;;;;;;;;;14.00;13.33;;;;;;;;5035292;28;45982;-68
2023/06/13 13:11:47;;;;;;;;;17.33;17.00;;;;;;;;5036165;28;46292;-68
2023/06/13 13:14:12;;;;;;;;;21.00;18.33;;;;;;;;5036320;28;45431;-68
2023/06/13 13:16:38;;;;;;;;;12.33;12.00;;;;;;;;5043126;28;45324;-68
2023/06/13 13:19:03;;;;;;;;;20.33;17.67;;;;;;;;5038246;28;45484;-68
2023/06/13 13:21:28;;;;;;;;;13.00;12.00;;;;;;;;5036799;28;46333;-68
2023/06/13 13:23:53;;;;;;;;;14.00;11.33;;;;;;;;5036060;28;46296;-71
2023/06/13 13:26:19;;;;;;;;;13.33;13.00;;;;;;;;5036046;28;45492;-68
2023/06/13 13:28:44;;;;;;;;;19.67;15.67;;;;;;;;5035277;28;46218;-68
2023/06/13 13:31:10;;;;;;;;;17.00;15.67;;;;;;;;5040405;28;46079;-68
2023/06/13 13:33:35;;;;;;;;;15.33;13.00;;;;;;;;5036756;28;45767;-69
2023/06/13 13:36:00;;;;;;;;;18.67;14.67;;;;;;;;5042697;28;45796;-70
2023/06/13 13:38:25;;;;;;;;;13.67;12.33;;;;;;;;5036796;28;45560;-69
2023/06/13 13:40:52;;;;;;;;;16.67;16.00;;;;;;;;5036964;28;46489;-68
2023/06/13 13:43:18;;;;;;;;;12.67;11.33;;;;;;;;5036622;28;45343;-69
2023/06/13 13:45:43;;;;;;;;;15.67;14.33;;;;;;;;5045530;28;45442;-68
2023/06/13 13:48:10;;;;;;;;;14.00;11.67;;;;;;;;5036593;28;45728;-69
2023/06/13 13:50:35;;;;;;;;;13.67;12.67;;;;;;;;5034470;28;46367;-67
2023/06/13 13:53:01;;;;;;;;;16.00;13.00;;;;;;;;5034999;28;45378;-69
2023/06/13 13:55:27;;;;;;;;;14.00;13.00;;;;;;;;5037495;28;45342;-68
2023/06/13 13:57:52;;;;;;;;;12.67;11.67;;;;;;;;5035649;28;45383;-68
2023/06/13 14:00:17;;;;;;;;;13.00;10.67;;;;;;;;5035709;28;45720;-69
2023/06/13 14:02:43;;;;;;;;;15.00;13.00;;;;;;;;5026449;28;45395;-68
2023/06/13 14:05:08;;;;;;;;;14.33;14.33;;;;;;;;5034409;28;45461;-68
2023/06/13 14:07:33;;;;;;;;;10.00;9.33;;;;;;;;5035415;28;45810;-69
2023/06/13 14:09:58;;;;;;;;;12.33;11.00;;;;;;;;5033618;28;48051;-69
2023/06/13 14:12:24;;;;;;;;;13.33;12.00;;;;;;;;5035942;28;45456;-69
2023/06/13 14:14:50;;;;;;;;;16.67;13.33;;;;;;;;5034142;28;45610;-68